Portada
METAR-TAF:

METAR-TAF

Aeroports :

Kbely

Praga, República Txeca

latitud: 50-07-17N, longitud: 14-32-37E, altitud: 286 m

Observació

L'informe es va fer fa 1 hora i 7 minuts, a les 00:00 UTC
Vent 3 kt del Oest/Nord-Oest, variant entre Oest i Nord/Nord-Oest
Temperatura 19°C
Humitat 73%
Pressió 1018 hPa
Visibilitat 10 km o més
sense núvols per sota de 1500 mi sense presència de cumulonimbus.

METAR: LKKB 160000Z 30003KT 270V330 CAVOK 19/14 Q1018

Hora: 03:07 (01:07 UTC)

Pronòstic

L'informe es va fer fa 2 hores i 7 minuts, a les 23:00 UTC
Pronòstic vàlid del 16 a les 00 UTC al 17 a les 00 UTC
Vent 2 kt amb direcció variable
Visibilitat 10 km o més
sense núvols per sota de 1500 mi sense presència de cumulonimbus.
Evolucionant progressivament
l' 16 a les 08 UTC al 16 a les 10 UTC
Vent 6 kt del Est/Nord-Est

TAF: LKKB 152300Z 1600/1700 VRB02KT CAVOK BECMG 1608/1610 06006KT

Observacions i pronòstics meteorològics de més de 4000 aeroports (METAR i TAF).

Les estacions disponibles són els punts grocs i vermells al mapa.

Posi el ratolí al punt desitjat per veure el nom de l'estació.

Feu clic per veure les observacions i els pronòstics meteorològics.

Per canviar el mapa: feu clic els botons verds amb una creu de color negre per apropar; al botó verd amb un guió per allunyar la imatge; o en les fletxes verdes per a mapes adjacents.


METAR-TAF: